Terminal Aerodrome Forecast
Issued by NWS

Home | Current Version | Previous Version | Text Only | Print | Product List | Glossary On
Versions: 1 2 3 4 5 6 7 8 9 10 11 12
000
FTUS42 KMLB 251136
TAFSFB
TAF
KSFB 251136Z 2512/2612 00000KT P6SM SCT250
     FM251500 05006KT P6SM SCT025
     FM252000 09008KT P6SM VCTS SCT030CB BKN100
     FM260000 09005KT P6SM FEW050 BKN250=

USA.gov is the U.S. government's official web portal to all federal, state and local government web resources and services.